sensor_id;sensor_type;location;lat;lon;timestamp;pressure;altitude;pressure_sealevel;temperature;humidity
44988;BME280;35735;52.226;21.254;2023-03-01T00:02:42;101664.78;;;-3.41;100.00
44988;BME280;35735;52.226;21.254;2023-03-01T00:07:43;101665.81;;;-3.39;100.00
44988;BME280;35735;52.226;21.254;2023-03-01T00:12:49;101659.03;;;-3.35;100.00
44988;BME280;35735;52.226;21.254;2023-03-01T00:18:02;101662.47;;;-3.36;100.00
44988;BME280;35735;52.226;21.254;2023-03-01T00:23:02;101657.53;;;-3.43;100.00
44988;BME280;35735;52.226;21.254;2023-03-01T00:28:03;101649.59;;;-3.43;100.00
44988;BME280;35735;52.226;21.254;2023-03-01T00:33:03;101639.84;;;-3.44;100.00
44988;BME280;35735;52.226;21.254;2023-03-01T00:38:04;101642.28;;;-3.36;100.00
44988;BME280;35735;52.226;21.254;2023-03-01T00:43:05;101643.66;;;-3.29;100.00
44988;BME280;35735;52.226;21.254;2023-03-01T00:48:05;101643.31;;;-3.33;100.00
44988;BME280;35735;52.226;21.254;2023-03-01T00:53:06;101650.75;;;-3.40;100.00
44988;BME280;35735;52.226;21.254;2023-03-01T00:58:06;101645.03;;;-3.34;100.00
44988;BME280;35735;52.226;21.254;2023-03-01T01:03:07;101648.59;;;-3.22;100.00
44988;BME280;35735;52.226;21.254;2023-03-01T01:08:07;101639.97;;;-3.31;100.00
44988;BME280;35735;52.226;21.254;2023-03-01T01:13:08;101628.97;;;-3.37;100.00
44988;BME280;35735;52.226;21.254;2023-03-01T01:18:08;101633.53;;;-3.23;100.00
44988;BME280;35735;52.226;21.254;2023-03-01T01:23:09;101611.16;;;-3.28;100.00
44988;BME280;35735;52.226;21.254;2023-03-01T01:28:09;101615.63;;;-3.39;100.00
44988;BME280;35735;52.226;21.254;2023-03-01T01:33:10;101618.62;;;-3.34;100.00
44988;BME280;35735;52.226;21.254;2023-03-01T01:38:10;101616.44;;;-3.28;100.00
44988;BME280;35735;52.226;21.254;2023-03-01T01:43:23;101606.44;;;-3.32;100.00
44988;BME280;35735;52.226;21.254;2023-03-01T01:48:38;101605.06;;;-3.39;100.00
44988;BME280;35735;52.226;21.254;2023-03-01T01:53:42;101599.56;;;-3.42;100.00
44988;BME280;35735;52.226;21.254;2023-03-01T01:58:47;101598.41;;;-3.45;100.00
44988;BME280;35735;52.226;21.254;2023-03-01T02:03:48;101589.47;;;-3.47;100.00
44988;BME280;35735;52.226;21.254;2023-03-01T02:08:50;101587.62;;;-3.48;100.00
44988;BME280;35735;52.226;21.254;2023-03-01T02:13:53;101586.37;;;-3.54;100.00
44988;BME280;35735;52.226;21.254;2023-03-01T02:18:54;101587.16;;;-3.55;100.00
44988;BME280;35735;52.226;21.254;2023-03-01T02:23:55;101587.38;;;-3.63;100.00
44988;BME280;35735;52.226;21.254;2023-03-01T02:28:56;101572.22;;;-3.66;100.00
44988;BME280;35735;52.226;21.254;2023-03-01T02:33:57;101572.94;;;-3.68;100.00
44988;BME280;35735;52.226;21.254;2023-03-01T02:38:59;101559.37;;;-3.73;100.00
44988;BME280;35735;52.226;21.254;2023-03-01T02:44:01;101566.03;;;-3.78;100.00
44988;BME280;35735;52.226;21.254;2023-03-01T02:54:33;101555.22;;;-3.81;100.00
44988;BME280;35735;52.226;21.254;2023-03-01T02:59:41;101555.22;;;-3.81;100.00
44988;BME280;35735;52.226;21.254;2023-03-01T03:04:42;101538.25;;;-3.73;100.00
44988;BME280;35735;52.226;21.254;2023-03-01T03:09:43;101543.31;;;-3.64;100.00
44988;BME280;35735;52.226;21.254;2023-03-01T03:14:43;101528.41;;;-3.52;100.00
44988;BME280;35735;52.226;21.254;2023-03-01T03:19:44;101519.44;;;-3.30;100.00
44988;BME280;35735;52.226;21.254;2023-03-01T03:24:45;101517.09;;;-3.14;100.00
44988;BME280;35735;52.226;21.254;2023-03-01T03:29:45;101510.53;;;-3.07;100.00
44988;BME280;35735;52.226;21.254;2023-03-01T03:34:46;101517.50;;;-2.96;100.00
44988;BME280;35735;52.226;21.254;2023-03-01T03:39:46;101523.50;;;-2.99;100.00
44988;BME280;35735;52.226;21.254;2023-03-01T03:44:47;101526.34;;;-2.95;100.00
44988;BME280;35735;52.226;21.254;2023-03-01T03:49:48;101513.69;;;-2.88;100.00
44988;BME280;35735;52.226;21.254;2023-03-01T03:54:48;101503.09;;;-2.88;100.00
44988;BME280;35735;52.226;21.254;2023-03-01T03:59:49;101497.47;;;-2.81;100.00
44988;BME280;35735;52.226;21.254;2023-03-01T04:04:49;101486.06;;;-2.80;100.00
44988;BME280;35735;52.226;21.254;2023-03-01T04:09:50;101488.13;;;-2.75;100.00
44988;BME280;35735;52.226;21.254;2023-03-01T04:14:50;101477.87;;;-2.71;100.00
44988;BME280;35735;52.226;21.254;2023-03-01T04:19:51;101486.56;;;-2.60;100.00
44988;BME280;35735;52.226;21.254;2023-03-01T04:24:52;101497.38;;;-2.57;100.00
44988;BME280;35735;52.226;21.254;2023-03-01T04:29:52;101489.28;;;-2.72;100.00
44988;BME280;35735;52.226;21.254;2023-03-01T04:34:53;101486.91;;;-2.81;100.00
44988;BME280;35735;52.226;21.254;2023-03-01T04:39:53;101469.09;;;-2.83;100.00
44988;BME280;35735;52.226;21.254;2023-03-01T04:44:54;101464.72;;;-2.83;100.00
44988;BME280;35735;52.226;21.254;2023-03-01T04:49:54;101455.59;;;-2.74;100.00
44988;BME280;35735;52.226;21.254;2023-03-01T04:54:55;101451.19;;;-2.62;100.00
44988;BME280;35735;52.226;21.254;2023-03-01T04:59:55;101456.87;;;-2.56;100.00
44988;BME280;35735;52.226;21.254;2023-03-01T05:04:56;101458.50;;;-2.58;100.00
44988;BME280;35735;52.226;21.254;2023-03-01T05:09:57;101455.06;;;-2.57;100.00
44988;BME280;35735;52.226;21.254;2023-03-01T05:14:57;101469.81;;;-2.61;100.00
44988;BME280;35735;52.226;21.254;2023-03-01T05:19:58;101478.03;;;-2.56;100.00
44988;BME280;35735;52.226;21.254;2023-03-01T05:24:58;101472.34;;;-2.62;100.00
44988;BME280;35735;52.226;21.254;2023-03-01T05:29:59;101476.97;;;-2.71;100.00
44988;BME280;35735;52.226;21.254;2023-03-01T05:34:59;101492.81;;;-2.71;100.00
44988;BME280;35735;52.226;21.254;2023-03-01T05:40:00;101495.25;;;-2.74;100.00
44988;BME280;35735;52.226;21.254;2023-03-01T05:45:00;101488.72;;;-2.80;100.00
44988;BME280;35735;52.226;21.254;2023-03-01T05:50:01;101499.78;;;-2.60;100.00
44988;BME280;35735;52.226;21.254;2023-03-01T05:55:02;101506.75;;;-2.49;100.00
44988;BME280;35735;52.226;21.254;2023-03-01T06:00:03;101506.56;;;-2.38;100.00
44988;BME280;35735;52.226;21.254;2023-03-01T06:05:06;101502.41;;;-2.35;100.00
44988;BME280;35735;52.226;21.254;2023-03-01T06:10:09;101503.94;;;-2.38;100.00
44988;BME280;35735;52.226;21.254;2023-03-01T06:15:12;101503.50;;;-2.45;100.00
44988;BME280;35735;52.226;21.254;2023-03-01T06:20:19;101486.88;;;-2.30;100.00
44988;BME280;35735;52.226;21.254;2023-03-01T06:25:22;101498.47;;;-2.15;100.00
44988;BME280;35735;52.226;21.254;2023-03-01T06:30:25;101501.16;;;-2.01;100.00
44988;BME280;35735;52.226;21.254;2023-03-01T06:35:26;101510.66;;;-1.78;100.00
44988;BME280;35735;52.226;21.254;2023-03-01T06:40:27;101503.81;;;-1.61;100.00
44988;BME280;35735;52.226;21.254;2023-03-01T06:45:28;101493.81;;;-1.39;100.00
44988;BME280;35735;52.226;21.254;2023-03-01T06:50:29;101489.91;;;-1.17;100.00
44988;BME280;35735;52.226;21.254;2023-03-01T06:55:30;101489.28;;;-1.00;100.00
44988;BME280;35735;52.226;21.254;2023-03-01T07:00:31;101488.78;;;-0.79;100.00
44988;BME280;35735;52.226;21.254;2023-03-01T07:05:33;101497.06;;;-0.60;100.00
44988;BME280;35735;52.226;21.254;2023-03-01T07:10:33;101491.72;;;-0.46;100.00
44988;BME280;35735;52.226;21.254;2023-03-01T07:15:34;101494.84;;;-0.24;100.00
44988;BME280;35735;52.226;21.254;2023-03-01T07:20:35;101502.56;;;-0.13;100.00
44988;BME280;35735;52.226;21.254;2023-03-01T07:25:35;101487.97;;;0.10;100.00
44988;BME280;35735;52.226;21.254;2023-03-01T07:30:36;101474.88;;;0.28;100.00
44988;BME280;35735;52.226;21.254;2023-03-01T07:35:36;101480.16;;;0.58;100.00
44988;BME280;35735;52.226;21.254;2023-03-01T07:40:37;101476.53;;;0.88;100.00
44988;BME280;35735;52.226;21.254;2023-03-01T07:45:38;101469.28;;;1.17;100.00
44988;BME280;35735;52.226;21.254;2023-03-01T07:50:38;101475.34;;;1.47;100.00
44988;BME280;35735;52.226;21.254;2023-03-01T07:55:39;101467.94;;;1.58;100.00
44988;BME280;35735;52.226;21.254;2023-03-01T08:00:39;101470.97;;;1.82;100.00
44988;BME280;35735;52.226;21.254;2023-03-01T08:05:40;101469.44;;;2.22;100.00
44988;BME280;35735;52.226;21.254;2023-03-01T08:10:40;101467.34;;;2.51;100.00
44988;BME280;35735;52.226;21.254;2023-03-01T08:15:41;101472.19;;;2.77;100.00
44988;BME280;35735;52.226;21.254;2023-03-01T08:20:41;101481.47;;;2.86;99.78
44988;BME280;35735;52.226;21.254;2023-03-01T08:25:42;101478.25;;;2.93;99.74
44988;BME280;35735;52.226;21.254;2023-03-01T08:30:43;101474.19;;;3.21;100.00
44988;BME280;35735;52.226;21.254;2023-03-01T08:35:43;101467.19;;;3.42;99.34
44988;BME280;35735;52.226;21.254;2023-03-01T08:40:44;101460.50;;;3.71;98.73
44988;BME280;35735;52.226;21.254;2023-03-01T08:45:44;101462.12;;;3.89;98.42
44988;BME280;35735;52.226;21.254;2023-03-01T08:50:45;101466.69;;;4.11;98.05
44988;BME280;35735;52.226;21.254;2023-03-01T08:55:45;101461.19;;;4.29;97.79
44988;BME280;35735;52.226;21.254;2023-03-01T09:00:46;101458.50;;;4.50;97.10
44988;BME280;35735;52.226;21.254;2023-03-01T09:05:46;101458.75;;;4.56;96.43
44988;BME280;35735;52.226;21.254;2023-03-01T09:10:47;101458.41;;;4.70;96.91
44988;BME280;35735;52.226;21.254;2023-03-01T09:15:47;101461.88;;;4.90;97.10
44988;BME280;35735;52.226;21.254;2023-03-01T09:20:48;101454.31;;;5.02;96.04
44988;BME280;35735;52.226;21.254;2023-03-01T09:25:49;101457.72;;;5.20;96.78
44988;BME280;35735;52.226;21.254;2023-03-01T09:30:49;101444.56;;;5.27;94.96
44988;BME280;35735;52.226;21.254;2023-03-01T09:35:56;101447.88;;;5.19;95.85
44988;BME280;35735;52.226;21.254;2023-03-01T09:41:00;101440.56;;;5.39;96.06
44988;BME280;35735;52.226;21.254;2023-03-01T09:46:04;101441.16;;;5.55;95.72
44988;BME280;35735;52.226;21.254;2023-03-01T09:51:13;101445.03;;;5.63;95.00
44988;BME280;35735;52.226;21.254;2023-03-01T09:56:22;101437.47;;;5.77;95.45
44988;BME280;35735;52.226;21.254;2023-03-01T10:01:28;101421.72;;;5.86;94.81
44988;BME280;35735;52.226;21.254;2023-03-01T10:06:34;101416.00;;;6.01;94.92
44988;BME280;35735;52.226;21.254;2023-03-01T10:11:41;101405.63;;;6.10;94.55
44988;BME280;35735;52.226;21.254;2023-03-01T10:17:00;101401.59;;;6.23;93.86
44988;BME280;35735;52.226;21.254;2023-03-01T10:22:27;101398.25;;;6.30;94.24
44988;BME280;35735;52.226;21.254;2023-03-01T10:28:10;101398.75;;;6.46;93.82
44988;BME280;35735;52.226;21.254;2023-03-01T10:33:20;101388.41;;;6.58;92.86
44988;BME280;35735;52.226;21.254;2023-03-01T10:38:30;101381.00;;;6.78;93.83
44988;BME280;35735;52.226;21.254;2023-03-01T10:43:44;101377.31;;;7.05;93.28
44988;BME280;35735;52.226;21.254;2023-03-01T10:49:21;101360.06;;;7.27;91.71
44988;BME280;35735;52.226;21.254;2023-03-01T11:00:25;101380.69;;;7.30;91.23
44988;BME280;35735;52.226;21.254;2023-03-01T11:05:26;101368.75;;;7.50;91.22
44988;BME280;35735;52.226;21.254;2023-03-01T11:10:30;101370.81;;;7.60;90.81
44988;BME280;35735;52.226;21.254;2023-03-01T11:15:32;101365.69;;;7.70;89.35
44988;BME280;35735;52.226;21.254;2023-03-01T11:20:37;101366.53;;;7.67;89.76
44988;BME280;35735;52.226;21.254;2023-03-01T11:25:54;101351.56;;;7.77;89.29
44988;BME280;35735;52.226;21.254;2023-03-01T11:36:21;101341.13;;;7.89;89.30
44988;BME280;35735;52.226;21.254;2023-03-01T11:41:32;101334.94;;;7.93;88.90
44988;BME280;35735;52.226;21.254;2023-03-01T11:52:32;101340.94;;;7.83;88.39
44988;BME280;35735;52.226;21.254;2023-03-01T12:20:03;101337.75;;;7.98;88.51
44988;BME280;35735;52.226;21.254;2023-03-01T12:41:43;101308.56;;;7.77;88.60
44988;BME280;35735;52.226;21.254;2023-03-01T12:57:48;101305.56;;;7.66;89.22
44988;BME280;35735;52.226;21.254;2023-03-01T13:08:24;101305.94;;;7.45;89.84
44988;BME280;35735;52.226;21.254;2023-03-01T13:13:31;101301.16;;;7.35;90.20
44988;BME280;35735;52.226;21.254;2023-03-01T13:18:32;101297.56;;;7.34;90.46
44988;BME280;35735;52.226;21.254;2023-03-01T13:23:36;101303.78;;;7.32;90.45
44988;BME280;35735;52.226;21.254;2023-03-01T13:33:50;101289.28;;;7.27;90.77
44988;BME280;35735;52.226;21.254;2023-03-01T13:43:56;101285.25;;;7.09;91.31
44988;BME280;35735;52.226;21.254;2023-03-01T13:48:56;101269.19;;;7.11;91.54
44988;BME280;35735;52.226;21.254;2023-03-01T13:53:58;101270.97;;;7.10;91.77
44988;BME280;35735;52.226;21.254;2023-03-01T13:59:04;101270.19;;;7.14;91.90
44988;BME280;35735;52.226;21.254;2023-03-01T14:09:27;101269.12;;;7.09;91.88
44988;BME280;35735;52.226;21.254;2023-03-01T14:14:36;101262.69;;;7.02;91.99
44988;BME280;35735;52.226;21.254;2023-03-01T14:19:42;101264.53;;;7.03;92.25
44988;BME280;35735;52.226;21.254;2023-03-01T14:24:48;101260.22;;;7.10;92.25
44988;BME280;35735;52.226;21.254;2023-03-01T14:30:02;101249.50;;;7.10;92.25
44988;BME280;35735;52.226;21.254;2023-03-01T14:35:20;101247.53;;;7.04;92.17
44988;BME280;35735;52.226;21.254;2023-03-01T14:40:24;101243.00;;;7.02;92.35
44988;BME280;35735;52.226;21.254;2023-03-01T14:45:27;101233.97;;;6.98;92.37
44988;BME280;35735;52.226;21.254;2023-03-01T14:50:31;101236.59;;;6.97;92.32
44988;BME280;35735;52.226;21.254;2023-03-01T14:55:35;101234.69;;;6.93;92.50
44988;BME280;35735;52.226;21.254;2023-03-01T15:00:38;101230.34;;;6.98;92.58
44988;BME280;35735;52.226;21.254;2023-03-01T15:05:40;101227.56;;;6.95;92.61
44988;BME280;35735;52.226;21.254;2023-03-01T15:10:57;101218.75;;;6.99;92.61
44988;BME280;35735;52.226;21.254;2023-03-01T15:16:03;101227.56;;;6.95;92.60
44988;BME280;35735;52.226;21.254;2023-03-01T15:21:15;101217.78;;;6.95;92.78
44988;BME280;35735;52.226;21.254;2023-03-01T15:26:29;101207.94;;;6.96;92.62
44988;BME280;35735;52.226;21.254;2023-03-01T15:31:34;101220.31;;;6.91;92.72
44988;BME280;35735;52.226;21.254;2023-03-01T15:41:48;101215.38;;;6.74;93.02
44988;BME280;35735;52.226;21.254;2023-03-01T15:46:48;101208.97;;;6.69;93.40
44988;BME280;35735;52.226;21.254;2023-03-01T15:51:49;101208.16;;;6.72;93.61
44988;BME280;35735;52.226;21.254;2023-03-01T15:56:50;101201.06;;;6.74;93.72
44988;BME280;35735;52.226;21.254;2023-03-01T16:01:50;101203.75;;;6.74;93.74
44988;BME280;35735;52.226;21.254;2023-03-01T16:06:52;101202.81;;;6.72;93.65
44988;BME280;35735;52.226;21.254;2023-03-01T16:11:53;101200.84;;;6.66;93.60
44988;BME280;35735;52.226;21.254;2023-03-01T16:16:54;101200.69;;;6.61;93.64
44988;BME280;35735;52.226;21.254;2023-03-01T16:21:55;101207.81;;;6.59;93.80
44988;BME280;35735;52.226;21.254;2023-03-01T16:26:55;101209.53;;;6.57;93.86
44988;BME280;35735;52.226;21.254;2023-03-01T16:31:56;101206.72;;;6.53;93.90
44988;BME280;35735;52.226;21.254;2023-03-01T16:36:57;101204.62;;;6.42;93.78
44988;BME280;35735;52.226;21.254;2023-03-01T16:41:59;101200.72;;;6.31;93.77
44988;BME280;35735;52.226;21.254;2023-03-01T16:47:00;101193.06;;;6.15;93.75
44988;BME280;35735;52.226;21.254;2023-03-01T16:52:01;101203.34;;;5.99;93.86
44988;BME280;35735;52.226;21.254;2023-03-01T16:57:01;101207.28;;;5.83;93.81
44988;BME280;35735;52.226;21.254;2023-03-01T17:02:02;101207.38;;;5.59;93.60
44988;BME280;35735;52.226;21.254;2023-03-01T17:07:03;101213.09;;;5.43;93.96
44988;BME280;35735;52.226;21.254;2023-03-01T17:12:04;101219.75;;;5.28;94.29
44988;BME280;35735;52.226;21.254;2023-03-01T17:17:05;101221.91;;;5.13;94.17
44988;BME280;35735;52.226;21.254;2023-03-01T17:22:06;101228.31;;;4.92;93.99
44988;BME280;35735;52.226;21.254;2023-03-01T17:27:07;101236.31;;;4.67;94.14
44988;BME280;35735;52.226;21.254;2023-03-01T17:32:08;101239.94;;;4.44;94.34
44988;BME280;35735;52.226;21.254;2023-03-01T17:37:09;101239.91;;;4.20;94.44
44988;BME280;35735;52.226;21.254;2023-03-01T17:42:09;101248.00;;;3.99;94.61
44988;BME280;35735;52.226;21.254;2023-03-01T17:47:10;101237.41;;;3.80;94.91
44988;BME280;35735;52.226;21.254;2023-03-01T17:52:11;101221.81;;;3.68;95.25
44988;BME280;35735;52.226;21.254;2023-03-01T17:57:11;101221.94;;;3.71;96.40
44988;BME280;35735;52.226;21.254;2023-03-01T18:02:12;101216.47;;;3.68;96.61
44988;BME280;35735;52.226;21.254;2023-03-01T18:07:13;101214.75;;;3.70;97.17
44988;BME280;35735;52.226;21.254;2023-03-01T18:12:13;101203.88;;;3.65;97.27
44988;BME280;35735;52.226;21.254;2023-03-01T18:17:14;101218.62;;;3.56;97.43
44988;BME280;35735;52.226;21.254;2023-03-01T18:22:14;101215.19;;;3.37;97.84
44988;BME280;35735;52.226;21.254;2023-03-01T18:27:16;101213.25;;;3.33;98.28
44988;BME280;35735;52.226;21.254;2023-03-01T18:32:16;101205.03;;;3.28;98.25
44988;BME280;35735;52.226;21.254;2023-03-01T18:37:17;101208.50;;;3.26;98.26
44988;BME280;35735;52.226;21.254;2023-03-01T18:42:18;101210.03;;;3.21;98.35
44988;BME280;35735;52.226;21.254;2023-03-01T18:47:18;101215.69;;;3.07;98.17
44988;BME280;35735;52.226;21.254;2023-03-01T18:52:19;101217.91;;;2.96;97.99
44988;BME280;35735;52.226;21.254;2023-03-01T18:57:20;101219.84;;;2.80;97.90
44988;BME280;35735;52.226;21.254;2023-03-01T19:02:20;101213.94;;;2.67;97.89
44988;BME280;35735;52.226;21.254;2023-03-01T19:07:21;101224.91;;;2.54;98.08
44988;BME280;35735;52.226;21.254;2023-03-01T19:12:21;101229.13;;;2.49;98.54
44988;BME280;35735;52.226;21.254;2023-03-01T19:17:23;101224.78;;;2.31;98.42
44988;BME280;35735;52.226;21.254;2023-03-01T19:22:25;101228.28;;;2.11;98.51
44988;BME280;35735;52.226;21.254;2023-03-01T19:27:26;101237.34;;;1.96;98.61
44988;BME280;35735;52.226;21.254;2023-03-01T19:32:27;101244.47;;;1.78;98.91
44988;BME280;35735;52.226;21.254;2023-03-01T19:37:27;101246.22;;;1.59;99.08
44988;BME280;35735;52.226;21.254;2023-03-01T19:42:28;101241.78;;;1.42;99.49
44988;BME280;35735;52.226;21.254;2023-03-01T19:47:29;101250.84;;;1.27;99.68
44988;BME280;35735;52.226;21.254;2023-03-01T19:52:29;101250.28;;;1.17;100.00
44988;BME280;35735;52.226;21.254;2023-03-01T19:57:30;101249.47;;;1.18;100.00
44988;BME280;35735;52.226;21.254;2023-03-01T20:02:31;101252.56;;;1.09;100.00
44988;BME280;35735;52.226;21.254;2023-03-01T20:07:32;101255.59;;;0.99;100.00
44988;BME280;35735;52.226;21.254;2023-03-01T20:12:35;101266.28;;;1.00;100.00
44988;BME280;35735;52.226;21.254;2023-03-01T20:17:36;101257.22;;;0.97;100.00
44988;BME280;35735;52.226;21.254;2023-03-01T20:22:36;101266.47;;;0.87;100.00
44988;BME280;35735;52.226;21.254;2023-03-01T20:27:37;101268.72;;;0.79;100.00
44988;BME280;35735;52.226;21.254;2023-03-01T20:32:37;101265.81;;;0.74;100.00
44988;BME280;35735;52.226;21.254;2023-03-01T20:37:38;101278.22;;;0.74;100.00
44988;BME280;35735;52.226;21.254;2023-03-01T20:42:39;101280.34;;;0.65;100.00
44988;BME280;35735;52.226;21.254;2023-03-01T20:47:39;101269.56;;;0.62;100.00
44988;BME280;35735;52.226;21.254;2023-03-01T20:52:40;101265.75;;;0.57;100.00
44988;BME280;35735;52.226;21.254;2023-03-01T20:57:40;101264.84;;;0.56;100.00
44988;BME280;35735;52.226;21.254;2023-03-01T21:02:41;101263.78;;;0.52;100.00
44988;BME280;35735;52.226;21.254;2023-03-01T21:07:41;101266.94;;;0.45;100.00
44988;BME280;35735;52.226;21.254;2023-03-01T21:12:42;101259.59;;;0.41;100.00
44988;BME280;35735;52.226;21.254;2023-03-01T21:17:42;101273.22;;;0.31;100.00
44988;BME280;35735;52.226;21.254;2023-03-01T21:22:43;101256.31;;;0.29;100.00
44988;BME280;35735;52.226;21.254;2023-03-01T21:27:44;101250.72;;;0.24;100.00
44988;BME280;35735;52.226;21.254;2023-03-01T21:32:44;101245.16;;;0.20;100.00
44988;BME280;35735;52.226;21.254;2023-03-01T21:37:45;101235.22;;;0.15;100.00
44988;BME280;35735;52.226;21.254;2023-03-01T21:42:45;101247.16;;;0.07;100.00
44988;BME280;35735;52.226;21.254;2023-03-01T21:47:46;101240.50;;;-0.01;100.00
44988;BME280;35735;52.226;21.254;2023-03-01T21:52:46;101235.19;;;-0.01;100.00
44988;BME280;35735;52.226;21.254;2023-03-01T21:57:47;101234.03;;;-0.06;100.00
44988;BME280;35735;52.226;21.254;2023-03-01T22:02:48;101235.34;;;-0.14;100.00
44988;BME280;35735;52.226;21.254;2023-03-01T22:07:49;101241.44;;;-0.15;100.00
44988;BME280;35735;52.226;21.254;2023-03-01T22:12:50;101242.12;;;-0.20;100.00
44988;BME280;35735;52.226;21.254;2023-03-01T22:17:50;101234.78;;;-0.24;100.00
44988;BME280;35735;52.226;21.254;2023-03-01T22:22:51;101231.06;;;-0.27;100.00
44988;BME280;35735;52.226;21.254;2023-03-01T22:27:51;101225.56;;;-0.30;100.00
44988;BME280;35735;52.226;21.254;2023-03-01T22:32:52;101225.75;;;-0.27;100.00
44988;BME280;35735;52.226;21.254;2023-03-01T22:37:52;101232.16;;;-0.24;100.00
44988;BME280;35735;52.226;21.254;2023-03-01T22:42:53;101232.44;;;-0.34;100.00
44988;BME280;35735;52.226;21.254;2023-03-01T22:47:54;101224.31;;;-0.37;100.00
44988;BME280;35735;52.226;21.254;2023-03-01T22:52:54;101233.03;;;-0.40;100.00
44988;BME280;35735;52.226;21.254;2023-03-01T22:57:55;101221.44;;;-0.42;100.00
44988;BME280;35735;52.226;21.254;2023-03-01T23:02:55;101227.38;;;-0.46;100.00
44988;BME280;35735;52.226;21.254;2023-03-01T23:07:56;101234.91;;;-0.53;100.00
44988;BME280;35735;52.226;21.254;2023-03-01T23:12:56;101227.75;;;-0.54;100.00
44988;BME280;35735;52.226;21.254;2023-03-01T23:17:57;101239.84;;;-0.60;100.00
44988;BME280;35735;52.226;21.254;2023-03-01T23:22:58;101243.13;;;-0.64;100.00
44988;BME280;35735;52.226;21.254;2023-03-01T23:27:58;101237.66;;;-0.67;100.00
44988;BME280;35735;52.226;21.254;2023-03-01T23:32:59;101233.97;;;-0.69;100.00
44988;BME280;35735;52.226;21.254;2023-03-01T23:37:59;101228.69;;;-0.69;100.00
44988;BME280;35735;52.226;21.254;2023-03-01T23:43:00;101225.84;;;-0.72;100.00
44988;BME280;35735;52.226;21.254;2023-03-01T23:48:00;101223.50;;;-0.82;100.00
44988;BME280;35735;52.226;21.254;2023-03-01T23:53:01;101224.69;;;-0.92;100.00
44988;BME280;35735;52.226;21.254;2023-03-01T23:58:02;101227.09;;;-0.97;100.00
